sensor_id;sensor_type;location;lat;lon;timestamp;temperature;humidity
67901;DHT22;54700;51.796;10.956;2023-08-07T00:01:04;14.30;99.90
67901;DHT22;54700;51.796;10.956;2023-08-07T00:03:31;14.30;99.90
67901;DHT22;54700;51.796;10.956;2023-08-07T00:06:01;14.30;99.90
67901;DHT22;54700;51.796;10.956;2023-08-07T00:08:28;14.30;99.90
67901;DHT22;54700;51.796;10.956;2023-08-07T00:11:04;14.30;99.90
67901;DHT22;54700;51.796;10.956;2023-08-07T00:13:31;14.30;99.90
67901;DHT22;54700;51.796;10.956;2023-08-07T00:15:58;14.30;99.90
67901;DHT22;54700;51.796;10.956;2023-08-07T00:18:27;14.30;99.90
67901;DHT22;54700;51.796;10.956;2023-08-07T00:20:54;14.30;99.90
67901;DHT22;54700;51.796;10.956;2023-08-07T00:23:21;14.30;99.90
67901;DHT22;54700;51.796;10.956;2023-08-07T00:25:48;14.30;99.90
67901;DHT22;54700;51.796;10.956;2023-08-07T00:28:18;14.30;99.90
67901;DHT22;54700;51.796;10.956;2023-08-07T00:30:45;14.30;99.90
67901;DHT22;54700;51.796;10.956;2023-08-07T00:33:17;14.20;99.90
67901;DHT22;54700;51.796;10.956;2023-08-07T00:35:53;14.20;99.90
67901;DHT22;54700;51.796;10.956;2023-08-07T00:38:20;14.20;99.90
67901;DHT22;54700;51.796;10.956;2023-08-07T00:40:47;14.20;99.90
67901;DHT22;54700;51.796;10.956;2023-08-07T00:43:16;14.20;99.90
67901;DHT22;54700;51.796;10.956;2023-08-07T00:45:45;14.20;99.90
67901;DHT22;54700;51.796;10.956;2023-08-07T00:48:16;14.20;99.90
67901;DHT22;54700;51.796;10.956;2023-08-07T00:50:44;14.20;99.90
67901;DHT22;54700;51.796;10.956;2023-08-07T00:53:21;14.20;99.90
67901;DHT22;54700;51.796;10.956;2023-08-07T00:55:49;14.20;99.90
67901;DHT22;54700;51.796;10.956;2023-08-07T00:58:17;14.20;99.90
67901;DHT22;54700;51.796;10.956;2023-08-07T01:00:44;14.20;99.90
67901;DHT22;54700;51.796;10.956;2023-08-07T01:03:12;14.20;99.90
67901;DHT22;54700;51.796;10.956;2023-08-07T01:05:40;14.20;99.90
67901;DHT22;54700;51.796;10.956;2023-08-07T01:08:20;14.30;99.90
67901;DHT22;54700;51.796;10.956;2023-08-07T01:10:59;14.30;99.90
67901;DHT22;54700;51.796;10.956;2023-08-07T01:13:40;14.30;99.90
67901;DHT22;54700;51.796;10.956;2023-08-07T01:16:13;14.30;99.90
67901;DHT22;54700;51.796;10.956;2023-08-07T01:18:49;14.30;99.90
67901;DHT22;54700;51.796;10.956;2023-08-07T01:21:23;14.30;99.90
67901;DHT22;54700;51.796;10.956;2023-08-07T01:23:51;14.30;99.90
67901;DHT22;54700;51.796;10.956;2023-08-07T01:26:18;14.30;99.90
67901;DHT22;54700;51.796;10.956;2023-08-07T01:28:54;14.30;99.90
67901;DHT22;54700;51.796;10.956;2023-08-07T01:31:35;14.30;99.90
67901;DHT22;54700;51.796;10.956;2023-08-07T01:34:05;14.30;99.90
67901;DHT22;54700;51.796;10.956;2023-08-07T01:36:36;14.30;99.90
67901;DHT22;54700;51.796;10.956;2023-08-07T01:39:07;14.20;99.90
67901;DHT22;54700;51.796;10.956;2023-08-07T01:41:36;14.30;99.90
67901;DHT22;54700;51.796;10.956;2023-08-07T01:44:05;14.30;99.90
67901;DHT22;54700;51.796;10.956;2023-08-07T01:46:34;14.30;99.90
67901;DHT22;54700;51.796;10.956;2023-08-07T01:49:01;14.30;99.90
67901;DHT22;54700;51.796;10.956;2023-08-07T01:51:37;14.30;99.90
67901;DHT22;54700;51.796;10.956;2023-08-07T01:54:09;14.30;99.90
67901;DHT22;54700;51.796;10.956;2023-08-07T01:56:36;14.40;99.90
67901;DHT22;54700;51.796;10.956;2023-08-07T02:51:13;14.30;99.90
67901;DHT22;54700;51.796;10.956;2023-08-07T02:53:40;14.20;99.90
67901;DHT22;54700;51.796;10.956;2023-08-07T02:56:07;14.20;99.90
67901;DHT22;54700;51.796;10.956;2023-08-07T02:58:34;14.30;99.90
67901;DHT22;54700;51.796;10.956;2023-08-07T03:01:03;14.20;99.90
67901;DHT22;54700;51.796;10.956;2023-08-07T03:03:31;14.20;99.90
67901;DHT22;54700;51.796;10.956;2023-08-07T03:05:58;14.20;99.90
67901;DHT22;54700;51.796;10.956;2023-08-07T03:08:27;14.10;99.90
67901;DHT22;54700;51.796;10.956;2023-08-07T03:10:54;14.10;99.90
67901;DHT22;54700;51.796;10.956;2023-08-07T03:13:23;14.10;99.90
67901;DHT22;54700;51.796;10.956;2023-08-07T03:15:50;14.10;99.90
67901;DHT22;54700;51.796;10.956;2023-08-07T03:18:17;14.10;99.90
67901;DHT22;54700;51.796;10.956;2023-08-07T03:20:44;14.10;99.90
67901;DHT22;54700;51.796;10.956;2023-08-07T03:23:11;14.10;99.90
67901;DHT22;54700;51.796;10.956;2023-08-07T03:25:39;14.10;99.90
67901;DHT22;54700;51.796;10.956;2023-08-07T03:28:07;14.10;99.90
67901;DHT22;54700;51.796;10.956;2023-08-07T03:30:34;14.20;99.90
67901;DHT22;54700;51.796;10.956;2023-08-07T03:33:01;14.20;99.90
67901;DHT22;54700;51.796;10.956;2023-08-07T03:35:27;14.20;99.90
67901;DHT22;54700;51.796;10.956;2023-08-07T03:37:54;14.20;99.90
67901;DHT22;54700;51.796;10.956;2023-08-07T03:40:21;14.20;99.90
67901;DHT22;54700;51.796;10.956;2023-08-07T03:42:50;14.20;99.90
67901;DHT22;54700;51.796;10.956;2023-08-07T03:45:17;14.20;99.90
67901;DHT22;54700;51.796;10.956;2023-08-07T03:47:44;14.20;99.90
67901;DHT22;54700;51.796;10.956;2023-08-07T03:50:12;14.20;99.90
67901;DHT22;54700;51.796;10.956;2023-08-07T03:52:39;14.20;99.90
67901;DHT22;54700;51.796;10.956;2023-08-07T03:55:07;14.10;99.90
67901;DHT22;54700;51.796;10.956;2023-08-07T03:57:34;14.20;99.90
67901;DHT22;54700;51.796;10.956;2023-08-07T04:00:03;14.20;99.90
67901;DHT22;54700;51.796;10.956;2023-08-07T04:02:31;14.10;99.90
67901;DHT22;54700;51.796;10.956;2023-08-07T04:04:58;14.20;99.90
67901;DHT22;54700;51.796;10.956;2023-08-07T04:07:25;14.20;99.90
67901;DHT22;54700;51.796;10.956;2023-08-07T04:09:52;14.20;99.90
67901;DHT22;54700;51.796;10.956;2023-08-07T04:12:19;14.20;99.90
67901;DHT22;54700;51.796;10.956;2023-08-07T04:14:46;14.20;99.90
67901;DHT22;54700;51.796;10.956;2023-08-07T04:17:17;14.20;99.90
67901;DHT22;54700;51.796;10.956;2023-08-07T04:19:44;14.30;99.90
67901;DHT22;54700;51.796;10.956;2023-08-07T04:22:15;14.30;99.90
67901;DHT22;54700;51.796;10.956;2023-08-07T04:24:55;14.30;99.90
67901;DHT22;54700;51.796;10.956;2023-08-07T04:27:23;14.30;99.90
67901;DHT22;54700;51.796;10.956;2023-08-07T04:29:50;14.30;99.90
67901;DHT22;54700;51.796;10.956;2023-08-07T04:32:18;14.40;99.90
67901;DHT22;54700;51.796;10.956;2023-08-07T04:34:45;14.40;99.90
67901;DHT22;54700;51.796;10.956;2023-08-07T04:37:14;14.40;99.90
67901;DHT22;54700;51.796;10.956;2023-08-07T04:39:41;14.40;99.90
67901;DHT22;54700;51.796;10.956;2023-08-07T04:42:27;14.40;99.90
67901;DHT22;54700;51.796;10.956;2023-08-07T04:45:11;14.50;99.90
67901;DHT22;54700;51.796;10.956;2023-08-07T04:47:39;14.60;99.90
67901;DHT22;54700;51.796;10.956;2023-08-07T04:50:10;14.60;99.90
67901;DHT22;54700;51.796;10.956;2023-08-07T04:52:37;14.70;99.50
67901;DHT22;54700;51.796;10.956;2023-08-07T04:55:04;14.70;99.90
67901;DHT22;54700;51.796;10.956;2023-08-07T04:57:32;14.70;99.90
67901;DHT22;54700;51.796;10.956;2023-08-07T04:59:59;14.70;99.90
67901;DHT22;54700;51.796;10.956;2023-08-07T05:02:26;14.70;99.90
67901;DHT22;54700;51.796;10.956;2023-08-07T05:04:56;14.70;99.90
67901;DHT22;54700;51.796;10.956;2023-08-07T05:07:23;14.80;99.90
67901;DHT22;54700;51.796;10.956;2023-08-07T05:09:50;14.70;99.90
67901;DHT22;54700;51.796;10.956;2023-08-07T05:12:17;14.80;99.90
67901;DHT22;54700;51.796;10.956;2023-08-07T05:14:43;14.80;99.00
67901;DHT22;54700;51.796;10.956;2023-08-07T05:17:10;14.80;99.40
67901;DHT22;54700;51.796;10.956;2023-08-07T05:19:38;14.80;99.50
67901;DHT22;54700;51.796;10.956;2023-08-07T05:22:06;14.80;99.30
67901;DHT22;54700;51.796;10.956;2023-08-07T05:24:33;14.90;98.50
67901;DHT22;54700;51.796;10.956;2023-08-07T05:27:04;15.00;99.60
67901;DHT22;54700;51.796;10.956;2023-08-07T05:29:33;15.10;98.20
67901;DHT22;54700;51.796;10.956;2023-08-07T05:32:01;15.10;98.60
67901;DHT22;54700;51.796;10.956;2023-08-07T05:34:29;15.20;98.60
67901;DHT22;54700;51.796;10.956;2023-08-07T05:36:56;15.20;98.80
67901;DHT22;54700;51.796;10.956;2023-08-07T05:39:25;15.20;98.60
67901;DHT22;54700;51.796;10.956;2023-08-07T07:27:09;15.90;98.90
67901;DHT22;54700;51.796;10.956;2023-08-07T07:29:36;15.90;97.30
67901;DHT22;54700;51.796;10.956;2023-08-07T07:32:03;16.00;97.10
67901;DHT22;54700;51.796;10.956;2023-08-07T07:34:30;16.10;97.90
67901;DHT22;54700;51.796;10.956;2023-08-07T07:36:58;16.10;95.80
67901;DHT22;54700;51.796;10.956;2023-08-07T07:39:25;16.10;97.20
67901;DHT22;54700;51.796;10.956;2023-08-07T07:41:52;16.20;96.50
67901;DHT22;54700;51.796;10.956;2023-08-07T07:44:20;16.20;95.90
67901;DHT22;54700;51.796;10.956;2023-08-07T07:46:47;16.30;95.20
67901;DHT22;54700;51.796;10.956;2023-08-07T07:49:14;16.40;94.40
67901;DHT22;54700;51.796;10.956;2023-08-07T07:51:40;16.50;94.70
67901;DHT22;54700;51.796;10.956;2023-08-07T07:54:09;16.70;94.70
67901;DHT22;54700;51.796;10.956;2023-08-07T07:56:36;16.80;94.80
67901;DHT22;54700;51.796;10.956;2023-08-07T07:59:03;16.90;94.10
67901;DHT22;54700;51.796;10.956;2023-08-07T08:01:32;17.00;93.20
67901;DHT22;54700;51.796;10.956;2023-08-07T08:03:58;17.00;93.10
67901;DHT22;54700;51.796;10.956;2023-08-07T08:06:25;17.00;92.40
67901;DHT22;54700;51.796;10.956;2023-08-07T08:12:10;17.00;94.00
67901;DHT22;54700;51.796;10.956;2023-08-07T08:15:18;17.00;92.40
67901;DHT22;54700;51.796;10.956;2023-08-07T08:21:03;17.00;92.80
67901;DHT22;54700;51.796;10.956;2023-08-07T08:23:34;16.90;90.90
67901;DHT22;54700;51.796;10.956;2023-08-07T08:26:02;16.80;91.70
67901;DHT22;54700;51.796;10.956;2023-08-07T08:28:38;16.70;92.00
67901;DHT22;54700;51.796;10.956;2023-08-07T08:31:22;16.60;91.40
67901;DHT22;54700;51.796;10.956;2023-08-07T08:33:56;16.50;92.20
67901;DHT22;54700;51.796;10.956;2023-08-07T08:36:29;16.50;91.40
67901;DHT22;54700;51.796;10.956;2023-08-07T08:38:56;16.50;91.60
67901;DHT22;54700;51.796;10.956;2023-08-07T08:41:24;16.70;91.70
67901;DHT22;54700;51.796;10.956;2023-08-07T08:43:52;16.80;91.10
67901;DHT22;54700;51.796;10.956;2023-08-07T08:46:24;16.90;92.00
67901;DHT22;54700;51.796;10.956;2023-08-07T08:48:54;17.10;91.60
67901;DHT22;54700;51.796;10.956;2023-08-07T08:51:25;17.30;89.00
67901;DHT22;54700;51.796;10.956;2023-08-07T08:53:54;17.40;87.10
67901;DHT22;54700;51.796;10.956;2023-08-07T08:56:22;17.60;88.90
67901;DHT22;54700;51.796;10.956;2023-08-07T08:58:50;17.80;86.80
67901;DHT22;54700;51.796;10.956;2023-08-07T09:01:17;17.90;85.50
67901;DHT22;54700;51.796;10.956;2023-08-07T09:03:45;17.90;83.40
67901;DHT22;54700;51.796;10.956;2023-08-07T09:06:12;17.80;83.70
67901;DHT22;54700;51.796;10.956;2023-08-07T09:08:43;17.90;83.70
67901;DHT22;54700;51.796;10.956;2023-08-07T09:14:54;17.90;81.50
67901;DHT22;54700;51.796;10.956;2023-08-07T09:17:23;17.90;78.10
67901;DHT22;54700;51.796;10.956;2023-08-07T09:19:55;17.80;79.60
67901;DHT22;54700;51.796;10.956;2023-08-07T09:22:22;17.60;77.80
67901;DHT22;54700;51.796;10.956;2023-08-07T09:24:49;17.60;79.60
67901;DHT22;54700;51.796;10.956;2023-08-07T09:27:18;17.60;79.00
67901;DHT22;54700;51.796;10.956;2023-08-07T09:29:49;17.70;81.10
67901;DHT22;54700;51.796;10.956;2023-08-07T09:32:21;18.00;79.90
67901;DHT22;54700;51.796;10.956;2023-08-07T09:34:49;18.00;76.70
67901;DHT22;54700;51.796;10.956;2023-08-07T10:32:00;18.50;74.00
67901;DHT22;54700;51.796;10.956;2023-08-07T10:34:29;18.50;75.50
67901;DHT22;54700;51.796;10.956;2023-08-07T10:45:51;18.10;74.80
67901;DHT22;54700;51.796;10.956;2023-08-07T10:48:20;18.10;75.80
67901;DHT22;54700;51.796;10.956;2023-08-07T10:50:55;18.00;76.60
67901;DHT22;54700;51.796;10.956;2023-08-07T10:53:28;18.00;76.60
67901;DHT22;54700;51.796;10.956;2023-08-07T10:55:56;18.00;73.90
67901;DHT22;54700;51.796;10.956;2023-08-07T10:58:24;18.00;77.10
67901;DHT22;54700;51.796;10.956;2023-08-07T11:00:52;17.90;81.70
67901;DHT22;54700;51.796;10.956;2023-08-07T11:03:43;17.80;84.70
67901;DHT22;54700;51.796;10.956;2023-08-07T11:06:10;17.30;90.60
67901;DHT22;54700;51.796;10.956;2023-08-07T11:08:37;16.40;93.00
67901;DHT22;54700;51.796;10.956;2023-08-07T11:11:04;15.50;95.60
67901;DHT22;54700;51.796;10.956;2023-08-07T11:13:32;15.10;96.90
67901;DHT22;54700;51.796;10.956;2023-08-07T11:15:59;15.00;99.20
67901;DHT22;54700;51.796;10.956;2023-08-07T11:18:29;15.00;99.30
67901;DHT22;54700;51.796;10.956;2023-08-07T11:20:58;15.20;99.90
67901;DHT22;54700;51.796;10.956;2023-08-07T11:23:27;15.40;99.50
67901;DHT22;54700;51.796;10.956;2023-08-07T11:25:54;15.50;99.10
67901;DHT22;54700;51.796;10.956;2023-08-07T11:28:22;15.60;95.40
67901;DHT22;54700;51.796;10.956;2023-08-07T11:30:50;15.80;95.70
67901;DHT22;54700;51.796;10.956;2023-08-07T11:33:18;16.00;95.10
67901;DHT22;54700;51.796;10.956;2023-08-07T11:35:45;16.20;93.70
67901;DHT22;54700;51.796;10.956;2023-08-07T11:38:15;16.40;92.90
67901;DHT22;54700;51.796;10.956;2023-08-07T11:40:56;16.70;92.10
67901;DHT22;54700;51.796;10.956;2023-08-07T11:43:24;16.90;87.90
67901;DHT22;54700;51.796;10.956;2023-08-07T11:45:53;17.00;88.30
67901;DHT22;54700;51.796;10.956;2023-08-07T11:48:23;17.10;89.30
67901;DHT22;54700;51.796;10.956;2023-08-07T11:51:11;17.00;87.90
67901;DHT22;54700;51.796;10.956;2023-08-07T12:31:14;16.80;85.10
67901;DHT22;54700;51.796;10.956;2023-08-07T12:33:43;16.80;82.70
67901;DHT22;54700;51.796;10.956;2023-08-07T12:36:10;16.90;79.60
67901;DHT22;54700;51.796;10.956;2023-08-07T12:38:38;17.00;79.60
67901;DHT22;54700;51.796;10.956;2023-08-07T12:41:11;17.00;77.20
67901;DHT22;54700;51.796;10.956;2023-08-07T12:43:39;17.10;77.40
67901;DHT22;54700;51.796;10.956;2023-08-07T12:46:06;17.10;77.30
67901;DHT22;54700;51.796;10.956;2023-08-07T12:48:35;17.10;76.30
67901;DHT22;54700;51.796;10.956;2023-08-07T12:51:05;17.10;78.60
67901;DHT22;54700;51.796;10.956;2023-08-07T12:53:32;17.20;77.60
67901;DHT22;54700;51.796;10.956;2023-08-07T12:55:59;17.30;78.00
67901;DHT22;54700;51.796;10.956;2023-08-07T12:58:28;17.40;75.90
67901;DHT22;54700;51.796;10.956;2023-08-07T14:34:32;16.80;84.90
67901;DHT22;54700;51.796;10.956;2023-08-07T14:37:00;16.90;84.70
67901;DHT22;54700;51.796;10.956;2023-08-07T14:39:35;16.80;85.10
67901;DHT22;54700;51.796;10.956;2023-08-07T14:42:03;16.60;86.80
67901;DHT22;54700;51.796;10.956;2023-08-07T14:44:30;16.20;90.30
67901;DHT22;54700;51.796;10.956;2023-08-07T14:46:57;16.00;90.10
67901;DHT22;54700;51.796;10.956;2023-08-07T14:49:26;15.80;90.10
67901;DHT22;54700;51.796;10.956;2023-08-07T14:51:55;15.60;90.80
67901;DHT22;54700;51.796;10.956;2023-08-07T14:54:25;15.50;90.20
67901;DHT22;54700;51.796;10.956;2023-08-07T14:56:52;15.50;90.30
67901;DHT22;54700;51.796;10.956;2023-08-07T14:59:21;15.60;90.00
67901;DHT22;54700;51.796;10.956;2023-08-07T15:01:48;15.80;88.90
67901;DHT22;54700;51.796;10.956;2023-08-07T15:04:24;15.90;88.70
67901;DHT22;54700;51.796;10.956;2023-08-07T15:06:52;16.00;86.50
67901;DHT22;54700;51.796;10.956;2023-08-07T15:09:20;16.10;82.90
67901;DHT22;54700;51.796;10.956;2023-08-07T15:11:49;16.20;80.60
67901;DHT22;54700;51.796;10.956;2023-08-07T15:14:22;16.30;80.40
67901;DHT22;54700;51.796;10.956;2023-08-07T15:16:52;16.40;79.50
67901;DHT22;54700;51.796;10.956;2023-08-07T15:19:21;16.50;76.90
67901;DHT22;54700;51.796;10.956;2023-08-07T15:21:49;16.70;77.30
67901;DHT22;54700;51.796;10.956;2023-08-07T15:24:17;16.90;75.80
67901;DHT22;54700;51.796;10.956;2023-08-07T15:26:55;17.10;74.10
67901;DHT22;54700;51.796;10.956;2023-08-07T15:29:36;17.10;74.60
67901;DHT22;54700;51.796;10.956;2023-08-07T15:32:06;17.10;74.20
67901;DHT22;54700;51.796;10.956;2023-08-07T15:34:38;17.10;74.60
67901;DHT22;54700;51.796;10.956;2023-08-07T15:37:06;17.10;73.80
67901;DHT22;54700;51.796;10.956;2023-08-07T15:39:37;17.10;73.70
67901;DHT22;54700;51.796;10.956;2023-08-07T15:42:06;17.20;75.80
67901;DHT22;54700;51.796;10.956;2023-08-07T15:44:39;17.30;73.30
67901;DHT22;54700;51.796;10.956;2023-08-07T15:47:12;17.30;71.90
67901;DHT22;54700;51.796;10.956;2023-08-07T15:49:44;17.30;71.80
67901;DHT22;54700;51.796;10.956;2023-08-07T15:52:17;17.30;69.20
67901;DHT22;54700;51.796;10.956;2023-08-07T15:54:46;17.30;68.20
67901;DHT22;54700;51.796;10.956;2023-08-07T15:57:18;17.20;68.10
67901;DHT22;54700;51.796;10.956;2023-08-07T15:59:57;17.10;68.80
67901;DHT22;54700;51.796;10.956;2023-08-07T16:02:27;17.10;67.50
67901;DHT22;54700;51.796;10.956;2023-08-07T16:04:55;17.20;67.70
67901;DHT22;54700;51.796;10.956;2023-08-07T16:07:23;17.20;68.50
67901;DHT22;54700;51.796;10.956;2023-08-07T16:09:52;17.20;68.40
67901;DHT22;54700;51.796;10.956;2023-08-07T16:12:22;17.30;66.20
67901;DHT22;54700;51.796;10.956;2023-08-07T16:14:58;17.40;63.20
67901;DHT22;54700;51.796;10.956;2023-08-07T16:17:27;17.30;61.80
67901;DHT22;54700;51.796;10.956;2023-08-07T16:19:57;17.30;63.10
67901;DHT22;54700;51.796;10.956;2023-08-07T16:22:40;17.40;62.20
67901;DHT22;54700;51.796;10.956;2023-08-07T16:25:34;17.50;62.60
67901;DHT22;54700;51.796;10.956;2023-08-07T16:28:16;17.40;59.50
67901;DHT22;54700;51.796;10.956;2023-08-07T16:31:11;17.30;59.40
67901;DHT22;54700;51.796;10.956;2023-08-07T16:33:45;17.40;61.70
67901;DHT22;54700;51.796;10.956;2023-08-07T16:36:21;17.40;62.20
67901;DHT22;54700;51.796;10.956;2023-08-07T16:38:50;17.40;61.70
67901;DHT22;54700;51.796;10.956;2023-08-07T16:41:23;17.40;60.00
67901;DHT22;54700;51.796;10.956;2023-08-07T16:44:00;17.30;61.30
67901;DHT22;54700;51.796;10.956;2023-08-07T16:46:39;17.20;59.40
67901;DHT22;54700;51.796;10.956;2023-08-07T16:49:06;17.10;60.30
67901;DHT22;54700;51.796;10.956;2023-08-07T16:51:35;17.00;62.00
67901;DHT22;54700;51.796;10.956;2023-08-07T16:54:06;17.00;61.90
67901;DHT22;54700;51.796;10.956;2023-08-07T16:56:37;17.00;62.50
67901;DHT22;54700;51.796;10.956;2023-08-07T16:59:05;16.90;63.00
67901;DHT22;54700;51.796;10.956;2023-08-07T17:01:56;16.80;61.60
67901;DHT22;54700;51.796;10.956;2023-08-07T17:04:34;16.90;63.00
67901;DHT22;54700;51.796;10.956;2023-08-07T17:07:03;16.90;62.10
67901;DHT22;54700;51.796;10.956;2023-08-07T17:09:31;16.80;61.00
67901;DHT22;54700;51.796;10.956;2023-08-07T17:12:02;16.80;62.60
67901;DHT22;54700;51.796;10.956;2023-08-07T17:14:32;16.90;63.10
67901;DHT22;54700;51.796;10.956;2023-08-07T17:17:00;16.80;64.20
67901;DHT22;54700;51.796;10.956;2023-08-07T17:19:29;16.80;65.70
67901;DHT22;54700;51.796;10.956;2023-08-07T17:21:57;16.70;67.00
67901;DHT22;54700;51.796;10.956;2023-08-07T17:24:25;16.60;67.60
67901;DHT22;54700;51.796;10.956;2023-08-07T17:26:55;16.60;69.10
67901;DHT22;54700;51.796;10.956;2023-08-07T17:29:28;16.60;68.70
67901;DHT22;54700;51.796;10.956;2023-08-07T17:31:55;16.50;69.00
67901;DHT22;54700;51.796;10.956;2023-08-07T17:34:27;16.50;70.50
67901;DHT22;54700;51.796;10.956;2023-08-07T17:36:57;16.40;69.60
67901;DHT22;54700;51.796;10.956;2023-08-07T17:39:34;16.30;68.90
67901;DHT22;54700;51.796;10.956;2023-08-07T17:42:09;16.20;69.60
67901;DHT22;54700;51.796;10.956;2023-08-07T17:44:38;16.20;70.90
67901;DHT22;54700;51.796;10.956;2023-08-07T17:47:15;16.20;69.30
67901;DHT22;54700;51.796;10.956;2023-08-07T17:49:42;16.20;68.80
67901;DHT22;54700;51.796;10.956;2023-08-07T17:52:10;16.10;67.90
67901;DHT22;54700;51.796;10.956;2023-08-07T17:54:38;16.10;68.70
67901;DHT22;54700;51.796;10.956;2023-08-07T17:57:12;16.00;69.20
67901;DHT22;54700;51.796;10.956;2023-08-07T17:59:41;15.90;70.30
67901;DHT22;54700;51.796;10.956;2023-08-07T18:02:08;15.90;72.50
67901;DHT22;54700;51.796;10.956;2023-08-07T18:04:35;15.80;72.90
67901;DHT22;54700;51.796;10.956;2023-08-07T18:07:02;15.80;73.80
67901;DHT22;54700;51.796;10.956;2023-08-07T18:09:30;15.70;75.70
67901;DHT22;54700;51.796;10.956;2023-08-07T18:11:57;15.60;75.70
67901;DHT22;54700;51.796;10.956;2023-08-07T18:14:24;15.60;75.30
67901;DHT22;54700;51.796;10.956;2023-08-07T18:16:52;15.50;75.80
67901;DHT22;54700;51.796;10.956;2023-08-07T18:19:19;15.50;76.40
67901;DHT22;54700;51.796;10.956;2023-08-07T18:21:48;15.40;76.90
67901;DHT22;54700;51.796;10.956;2023-08-07T18:24:15;15.30;76.70
67901;DHT22;54700;51.796;10.956;2023-08-07T18:26:43;15.20;77.90
67901;DHT22;54700;51.796;10.956;2023-08-07T18:29:10;15.20;77.30
67901;DHT22;54700;51.796;10.956;2023-08-07T18:31:37;15.10;77.60
67901;DHT22;54700;51.796;10.956;2023-08-07T18:34:06;15.00;78.00
67901;DHT22;54700;51.796;10.956;2023-08-07T18:36:34;15.00;78.30
67901;DHT22;54700;51.796;10.956;2023-08-07T18:39:02;14.90;78.10
67901;DHT22;54700;51.796;10.956;2023-08-07T18:41:30;14.90;76.90
67901;DHT22;54700;51.796;10.956;2023-08-07T18:43:57;14.90;76.30
67901;DHT22;54700;51.796;10.956;2023-08-07T18:46:24;14.90;77.80
67901;DHT22;54700;51.796;10.956;2023-08-07T18:48:51;14.80;77.40
67901;DHT22;54700;51.796;10.956;2023-08-07T18:51:19;14.80;77.90
67901;DHT22;54700;51.796;10.956;2023-08-07T18:53:46;14.70;78.50
67901;DHT22;54700;51.796;10.956;2023-08-07T18:56:13;14.70;78.50
67901;DHT22;54700;51.796;10.956;2023-08-07T18:58:41;14.70;78.70
67901;DHT22;54700;51.796;10.956;2023-08-07T19:01:22;14.60;79.20
67901;DHT22;54700;51.796;10.956;2023-08-07T19:41:37;14.30;78.20
67901;DHT22;54700;51.796;10.956;2023-08-07T19:44:05;14.20;78.30
67901;DHT22;54700;51.796;10.956;2023-08-07T19:46:32;14.20;77.80
67901;DHT22;54700;51.796;10.956;2023-08-07T19:48:59;14.20;78.20
67901;DHT22;54700;51.796;10.956;2023-08-07T19:51:26;14.20;78.30
67901;DHT22;54700;51.796;10.956;2023-08-07T19:53:53;14.20;79.00
67901;DHT22;54700;51.796;10.956;2023-08-07T19:56:20;14.10;79.50
67901;DHT22;54700;51.796;10.956;2023-08-07T19:58:48;14.10;79.70
67901;DHT22;54700;51.796;10.956;2023-08-07T20:01:15;14.00;79.90
67901;DHT22;54700;51.796;10.956;2023-08-07T21:17:47;13.80;81.80
67901;DHT22;54700;51.796;10.956;2023-08-07T21:20:15;13.90;81.70
67901;DHT22;54700;51.796;10.956;2023-08-07T21:22:42;13.90;81.80
67901;DHT22;54700;51.796;10.956;2023-08-07T21:25:10;13.90;81.90
67901;DHT22;54700;51.796;10.956;2023-08-07T21:27:36;13.90;82.00
67901;DHT22;54700;51.796;10.956;2023-08-07T21:30:05;13.90;82.50
67901;DHT22;54700;51.796;10.956;2023-08-07T21:32:32;13.90;82.30
67901;DHT22;54700;51.796;10.956;2023-08-07T21:35:01;13.90;82.60
67901;DHT22;54700;51.796;10.956;2023-08-07T21:37:29;13.90;82.50
67901;DHT22;54700;51.796;10.956;2023-08-07T21:39:56;13.90;82.70
67901;DHT22;54700;51.796;10.956;2023-08-07T21:42:24;13.80;82.30
67901;DHT22;54700;51.796;10.956;2023-08-07T21:44:52;13.80;82.80
67901;DHT22;54700;51.796;10.956;2023-08-07T21:47:20;13.80;81.30
67901;DHT22;54700;51.796;10.956;2023-08-07T21:49:47;13.80;81.30
67901;DHT22;54700;51.796;10.956;2023-08-07T21:52:15;13.90;80.10
67901;DHT22;54700;51.796;10.956;2023-08-07T21:54:42;13.90;80.30
67901;DHT22;54700;51.796;10.956;2023-08-07T21:57:09;13.80;79.80
67901;DHT22;54700;51.796;10.956;2023-08-07T22:12:35;13.60;80.10
67901;DHT22;54700;51.796;10.956;2023-08-07T22:15:03;13.60;80.60
67901;DHT22;54700;51.796;10.956;2023-08-07T22:17:33;13.60;80.60
67901;DHT22;54700;51.796;10.956;2023-08-07T22:20:00;13.50;81.30
67901;DHT22;54700;51.796;10.956;2023-08-07T22:22:28;13.50;81.60
67901;DHT22;54700;51.796;10.956;2023-08-07T22:25:01;13.50;82.10
67901;DHT22;54700;51.796;10.956;2023-08-07T22:27:39;13.50;82.90
67901;DHT22;54700;51.796;10.956;2023-08-07T22:30:06;13.50;83.30
67901;DHT22;54700;51.796;10.956;2023-08-07T22:32:34;13.40;83.60
67901;DHT22;54700;51.796;10.956;2023-08-07T22:35:01;13.40;83.70
67901;DHT22;54700;51.796;10.956;2023-08-07T22:37:29;13.40;84.10
67901;DHT22;54700;51.796;10.956;2023-08-07T22:40:10;13.40;82.90
67901;DHT22;54700;51.796;10.956;2023-08-07T22:42:38;13.40;83.40
67901;DHT22;54700;51.796;10.956;2023-08-07T22:45:05;13.40;82.90
67901;DHT22;54700;51.796;10.956;2023-08-07T22:47:33;13.40;82.00
67901;DHT22;54700;51.796;10.956;2023-08-07T22:50:02;13.30;81.00
67901;DHT22;54700;51.796;10.956;2023-08-07T22:52:31;13.40;81.00
67901;DHT22;54700;51.796;10.956;2023-08-07T22:54:58;13.40;81.60
67901;DHT22;54700;51.796;10.956;2023-08-07T22:57:26;13.30;81.40
67901;DHT22;54700;51.796;10.956;2023-08-07T22:59:55;13.30;81.20
67901;DHT22;54700;51.796;10.956;2023-08-07T23:02:21;13.30;82.00
67901;DHT22;54700;51.796;10.956;2023-08-07T23:04:48;13.30;81.80
67901;DHT22;54700;51.796;10.956;2023-08-07T23:07:15;13.20;81.70
67901;DHT22;54700;51.796;10.956;2023-08-07T23:09:42;13.20;81.60
67901;DHT22;54700;51.796;10.956;2023-08-07T23:12:09;13.20;82.50
67901;DHT22;54700;51.796;10.956;2023-08-07T23:14:36;13.10;81.60
67901;DHT22;54700;51.796;10.956;2023-08-07T23:17:04;13.10;82.20
67901;DHT22;54700;51.796;10.956;2023-08-07T23:19:31;13.10;82.00
67901;DHT22;54700;51.796;10.956;2023-08-07T23:21:58;13.10;82.20
67901;DHT22;54700;51.796;10.956;2023-08-07T23:24:25;13.10;82.20
67901;DHT22;54700;51.796;10.956;2023-08-07T23:26:52;13.00;82.20
67901;DHT22;54700;51.796;10.956;2023-08-07T23:29:19;13.00;82.40
67901;DHT22;54700;51.796;10.956;2023-08-07T23:31:46;12.90;82.80
67901;DHT22;54700;51.796;10.956;2023-08-07T23:34:14;12.90;82.70
67901;DHT22;54700;51.796;10.956;2023-08-07T23:36:41;12.90;82.70